createdAt,value
2022-11-22T00:00:36.863Z,97069.54
2022-11-22T00:03:49.226Z,97071.16
2022-11-22T00:06:50.929Z,97080.67
2022-11-22T00:09:52.500Z,97085.78
2022-11-22T00:12:54.167Z,97081.59
2022-11-22T00:16:00.083Z,97080.16
2022-11-22T00:19:01.660Z,97084.20
2022-11-22T00:22:03.206Z,97081.10
2022-11-22T00:25:05.801Z,97084.38
2022-11-22T00:28:07.429Z,97091.38
2022-11-22T00:31:08.979Z,97090.52
2022-11-22T00:34:10.531Z,97100.70
2022-11-22T00:37:12.135Z,97100.46
2022-11-22T00:40:13.986Z,97100.79
2022-11-22T00:43:15.559Z,97100.17
2022-11-22T00:46:17.163Z,97101.95
2022-11-22T00:49:18.713Z,97102.73
2022-11-22T00:52:20.322Z,97107.48
2022-11-22T00:55:21.938Z,97106.09
2022-11-22T00:58:23.520Z,97112.77
2022-11-22T01:01:25.105Z,97105.63
2022-11-22T01:04:26.740Z,97101.77
2022-11-22T01:07:28.319Z,97093.61
2022-11-22T01:10:29.949Z,97086.94
2022-11-22T01:13:31.621Z,97083.45
2022-11-22T01:16:33.139Z,97081.27
2022-11-22T01:19:34.694Z,97083.23
2022-11-22T01:22:36.184Z,97078.50
2022-11-22T01:25:37.782Z,97080.07
2022-11-22T01:28:39.301Z,97076.42
2022-11-22T01:31:40.828Z,97070.77
2022-11-22T01:34:42.355Z,97063.27
2022-11-22T01:37:43.856Z,97060.38
2022-11-22T01:40:45.405Z,97058.04
2022-11-22T01:43:46.974Z,97061.54
2022-11-22T01:46:52.969Z,97060.90
2022-11-22T01:49:59.794Z,97057.77
2022-11-22T01:53:10.072Z,97063.89
2022-11-22T01:56:15.106Z,97063.27
2022-11-22T01:59:21.707Z,97053.86
2022-11-22T02:02:24.047Z,97057.76
2022-11-22T02:05:30.161Z,97054.09
2022-11-22T02:09:03.852Z,97058.91
2022-11-22T02:12:07.954Z,97057.44
2022-11-22T02:15:11.081Z,97049.11
2022-11-22T02:18:13.386Z,97053.45
2022-11-22T02:21:14.855Z,97044.13
2022-11-22T02:24:21.919Z,97047.16
2022-11-22T02:27:23.699Z,97041.94
2022-11-22T02:30:25.269Z,97036.58
2022-11-22T02:33:26.980Z,97031.98
2022-11-22T02:36:32.500Z,97027.92
2022-11-22T02:39:34.089Z,97025.19
2022-11-22T02:42:35.846Z,97023.92
2022-11-22T02:45:37.411Z,97021.53
2022-11-22T02:48:43.275Z,97020.51
2022-11-22T02:51:45.764Z,97026.64
2022-11-22T02:54:47.352Z,97022.29
2022-11-22T02:57:48.887Z,97012.59
2022-11-22T03:00:50.574Z,97009.14
2022-11-22T03:03:52.623Z,97005.48
2022-11-22T03:06:55.904Z,97008.35
2022-11-22T03:09:57.468Z,97009.50
2022-11-22T03:12:59.200Z,97009.82
2022-11-22T03:16:00.798Z,97010.84
2022-11-22T03:19:02.448Z,97010.84
2022-11-22T03:22:03.990Z,97011.15
2022-11-22T03:25:06.007Z,97018.80
2022-11-22T03:28:07.552Z,97023.70
2022-11-22T03:31:09.132Z,97018.16
2022-11-22T03:34:11.798Z,97008.23
2022-11-22T03:37:13.369Z,97014.84
2022-11-22T03:40:15.387Z,97011.36
2022-11-22T03:43:17.205Z,97012.36
2022-11-22T03:46:18.946Z,97012.91
2022-11-22T03:49:20.493Z,97012.06
2022-11-22T03:52:21.970Z,97007.02
2022-11-22T03:55:23.500Z,97014.36
2022-11-22T03:58:25.143Z,97014.06
2022-11-22T04:01:26.736Z,97011.17
2022-11-22T04:04:28.254Z,97012.55
2022-11-22T04:07:29.822Z,97011.67
2022-11-22T04:10:31.368Z,97015.02
2022-11-22T04:13:51.261Z,97012.68
2022-11-22T04:16:52.761Z,97010.77
2022-11-22T04:20:14.558Z,97006.33
2022-11-22T04:23:18.539Z,97005.24
2022-11-22T04:26:20.090Z,96998.72
2022-11-22T04:29:22.372Z,96992.10
2022-11-22T04:32:42.330Z,96989.98
2022-11-22T04:35:44.446Z,96984.23
2022-11-22T04:38:45.910Z,96982.19
2022-11-22T04:42:07.472Z,96980.61
2022-11-22T04:45:09.441Z,96977.73
2022-11-22T04:48:11.871Z,96975.02
2022-11-22T04:51:33.254Z,96972.58
2022-11-22T04:54:34.805Z,96974.87
2022-11-22T04:57:36.297Z,96980.09
2022-11-22T05:00:38.809Z,96984.87
2022-11-22T05:03:40.512Z,96988.73
2022-11-22T05:06:42.089Z,96980.09
2022-11-22T05:09:43.862Z,96976.72
2022-11-22T05:12:48.345Z,96976.79
2022-11-22T05:15:52.728Z,96975.52
2022-11-22T05:19:00.862Z,96974.35
2022-11-22T05:22:08.321Z,96973.87
2022-11-22T05:25:10.067Z,96969.66
2022-11-22T05:28:11.595Z,96968.77
2022-11-22T05:31:16.219Z,96971.80
2022-11-22T05:34:17.750Z,96975.41
2022-11-22T05:37:19.237Z,96974.67
2022-11-22T05:40:20.709Z,96976.95
2022-11-22T05:43:22.381Z,96980.47
2022-11-22T05:46:26.850Z,96982.44
2022-11-22T05:49:28.828Z,96983.10
2022-11-22T05:52:30.741Z,96984.21
2022-11-22T05:55:32.260Z,96986.86
2022-11-22T05:58:34.531Z,96993.41
2022-11-22T06:01:36.087Z,96989.38
2022-11-22T06:04:37.587Z,96995.29
2022-11-22T06:07:39.189Z,96993.70
2022-11-22T06:10:40.657Z,96998.41
2022-11-22T06:13:43.777Z,97005.77
2022-11-22T06:16:45.391Z,97005.28
2022-11-22T06:19:46.956Z,97008.76
2022-11-22T06:22:48.469Z,97007.68
2022-11-22T06:25:57.332Z,97005.80
2022-11-22T06:28:58.878Z,97004.35
2022-11-22T06:32:03.556Z,97007.81
2022-11-22T06:35:06.277Z,97010.92
2022-11-22T06:38:08.288Z,97012.62
2022-11-22T06:41:15.117Z,97018.45
2022-11-22T06:44:16.739Z,97026.38
2022-11-22T06:47:18.486Z,97028.27
2022-11-22T06:50:21.909Z,97033.41
2022-11-22T06:53:45.638Z,97036.81
2022-11-22T06:56:45.173Z,97044.77
2022-11-22T06:59:49.658Z,97046.32
2022-11-22T07:02:51.169Z,97042.20
2022-11-22T07:05:53.072Z,97037.23
2022-11-22T07:08:54.756Z,97032.66
2022-11-22T07:11:56.320Z,97027.90
2022-11-22T07:14:57.818Z,97030.80
2022-11-22T07:17:59.368Z,97031.99
2022-11-22T07:21:01.901Z,97038.07
2022-11-22T07:24:05.014Z,97041.79
2022-11-22T07:27:06.528Z,97040.17
2022-11-22T07:30:08.930Z,97043.83
2022-11-22T07:33:10.464Z,97052.45
2022-11-22T07:36:14.795Z,97050.30
2022-11-22T07:39:16.328Z,97048.39
2022-11-22T07:42:21.159Z,97056.82
2022-11-22T07:45:25.318Z,97054.71
2022-11-22T07:48:27.064Z,97061.73
2022-11-22T07:51:29.343Z,97056.12
2022-11-22T07:54:30.856Z,97052.96
2022-11-22T07:57:33.093Z,97051.04
2022-11-22T08:00:34.830Z,97048.36
2022-11-22T08:03:37.128Z,97044.80
2022-11-22T08:06:38.634Z,97044.77
2022-11-22T08:09:40.267Z,97048.65
2022-11-22T08:12:42.709Z,97045.16
2022-11-22T08:15:45.080Z,97039.91
2022-11-22T08:18:48.296Z,97031.91
2022-11-22T08:21:55.330Z,97029.05
2022-11-22T08:24:59.767Z,97032.15
2022-11-22T08:28:01.613Z,97029.84
2022-11-22T08:31:15.568Z,97025.64
2022-11-22T08:34:17.218Z,97026.33
2022-11-22T08:37:18.807Z,97023.52
2022-11-22T08:40:20.646Z,97021.42
2022-11-22T08:43:22.671Z,97022.61
2022-11-22T08:46:24.299Z,97021.77
2022-11-22T08:49:25.995Z,97023.92
2022-11-22T08:52:27.617Z,97020.58
2022-11-22T08:55:29.225Z,97021.00
2022-11-22T08:58:33.554Z,97023.55
2022-11-22T09:01:35.246Z,97025.64
2022-11-22T09:04:36.951Z,97017.07
2022-11-22T09:11:02.105Z,97022.13
2022-11-22T09:14:03.667Z,97021.39
2022-11-22T09:17:05.716Z,97015.59
2022-11-22T09:20:08.337Z,97019.27
2022-11-22T09:23:10.052Z,97022.19
2022-11-22T09:26:26.250Z,97016.93
2022-11-22T09:29:28.278Z,97005.18
2022-11-22T09:32:33.628Z,97007.30
2022-11-22T09:35:35.650Z,97010.30
2022-11-22T09:38:37.791Z,97013.79
2022-11-22T09:41:51.240Z,97012.01
2022-11-22T09:45:17.841Z,97014.03
2022-11-22T09:48:49.667Z,97006.11
2022-11-22T09:52:05.561Z,97002.30
2022-11-22T09:55:26.408Z,96998.25
2022-11-22T09:58:51.030Z,96995.59
2022-11-22T10:02:18.708Z,96995.54
2022-11-22T10:05:25.542Z,96998.35
2022-11-22T10:08:51.282Z,96995.85
2022-11-22T10:12:10.455Z,96995.16
2022-11-22T10:15:21.133Z,96999.42
2022-11-22T10:18:33.688Z,96998.17
2022-11-22T10:21:35.477Z,96998.78
2022-11-22T10:24:37.257Z,97000.48
2022-11-22T10:27:41.727Z,96992.99
2022-11-22T10:30:54.559Z,96990.48
2022-11-22T10:34:09.133Z,96990.31
2022-11-22T10:37:24.668Z,96984.89
2022-11-22T10:40:41.561Z,96984.55
2022-11-22T10:44:20.781Z,96978.98
2022-11-22T10:47:47.395Z,96972.91
2022-11-22T10:51:11.484Z,96972.45
2022-11-22T10:54:23.388Z,96969.92
2022-11-22T10:57:31.216Z,96964.62
2022-11-22T11:00:38.777Z,96964.12
2022-11-22T11:03:43.717Z,96956.21
2022-11-22T11:10:32.416Z,96955.31
2022-11-22T11:13:42.769Z,96959.27
2022-11-22T11:16:44.699Z,96958.17
2022-11-22T11:19:53.339Z,96955.17
2022-11-22T11:26:30.253Z,96952.27
2022-11-22T11:29:37.745Z,96951.30
2022-11-22T11:33:00.539Z,96952.64
2022-11-22T11:36:04.815Z,96948.84
2022-11-22T11:39:20.420Z,96954.64
2022-11-22T11:42:25.595Z,96957.89
2022-11-22T11:45:28.532Z,96960.48
2022-11-22T11:48:40.532Z,96964.16
2022-11-22T11:51:43.387Z,96965.52
2022-11-22T11:54:47.659Z,96961.83
2022-11-22T11:57:51.980Z,96960.36
2022-11-22T12:00:53.698Z,96963.92
2022-11-22T12:03:59.691Z,96967.63
2022-11-22T12:07:16.252Z,96968.23
2022-11-22T12:10:30.496Z,96964.45
2022-11-22T12:14:12.459Z,96962.75
2022-11-22T12:17:11.925Z,96956.08
2022-11-22T12:20:41.429Z,96953.73
2022-11-22T12:23:51.167Z,96955.69
2022-11-22T12:26:55.912Z,96953.88
2022-11-22T12:29:58.331Z,96950.95
2022-11-22T12:33:06.161Z,96945.83
2022-11-22T12:36:18.421Z,96946.07
2022-11-22T12:39:23.810Z,96944.77
2022-11-22T12:42:33.543Z,96943.62
2022-11-22T12:45:40.033Z,96940.86
2022-11-22T12:48:49.286Z,96944.30
2022-11-22T12:52:07.927Z,96946.04
2022-11-22T12:55:23.466Z,96943.40
2022-11-22T12:58:40.459Z,96942.88
2022-11-22T13:01:42.038Z,96943.06
2022-11-22T13:04:52.851Z,96940.19
2022-11-22T13:08:47.478Z,96937.38
2022-11-22T13:12:01.886Z,96932.20
2022-11-22T13:15:04.065Z,96926.89
2022-11-22T13:18:10.364Z,96927.99
2022-11-22T13:21:42.256Z,96926.68
2022-11-22T13:24:59.170Z,96928.34
2022-11-22T13:28:05.274Z,96925.15
2022-11-22T13:31:09.460Z,96918.08
2022-11-22T13:34:25.856Z,96914.19
2022-11-22T13:37:33.172Z,96911.63
2022-11-22T13:40:41.340Z,96908.05
2022-11-22T13:43:55.628Z,96904.77
2022-11-22T13:47:24.478Z,96903.45
2022-11-22T13:50:41.330Z,96901.80
2022-11-22T13:53:45.604Z,96895.80
2022-11-22T13:56:58.859Z,96896.74
2022-11-22T14:00:15.962Z,96890.66
2022-11-22T14:03:25.603Z,96891.27
2022-11-22T14:06:30.111Z,96888.48
2022-11-22T14:09:43.502Z,96890.84
2022-11-22T14:12:59.331Z,96888.73
2022-11-22T14:16:19.868Z,96895.91
2022-11-22T14:19:52.460Z,96900.74
2022-11-22T14:23:03.112Z,96896.84
2022-11-22T14:26:26.030Z,96898.56
2022-11-22T14:29:55.197Z,96906.13
2022-11-22T14:33:15.983Z,96913.69
2022-11-22T14:36:21.215Z,96917.36
2022-11-22T14:39:44.518Z,96914.88
2022-11-22T14:42:51.979Z,96917.77
2022-11-22T14:46:00.035Z,96919.71
2022-11-22T14:49:28.379Z,96913.33
2022-11-22T14:52:32.419Z,96916.99
2022-11-22T14:55:34.979Z,96914.98
2022-11-22T14:58:41.637Z,96918.88
2022-11-22T15:02:20.740Z,96916.94
2022-11-22T15:09:17.239Z,96920.22
2022-11-22T15:09:53.405Z,96924.68
2022-11-22T15:13:01.287Z,96933.34
2022-11-22T15:58:00.318Z,96955.69
2022-11-22T16:01:19.203Z,96958.27
2022-11-22T16:04:28.698Z,96958.59
2022-11-22T16:07:38.717Z,96958.84
2022-11-22T16:10:42.210Z,96957.81
2022-11-22T16:13:43.923Z,96959.94
2022-11-22T16:16:45.536Z,96960.16
2022-11-22T16:19:47.460Z,96962.96
2022-11-22T16:23:14.060Z,96958.70
2022-11-22T16:26:25.175Z,96962.66
2022-11-22T16:29:33.208Z,96968.66
2022-11-22T16:32:34.999Z,96969.05
2022-11-22T16:35:36.977Z,96964.54
2022-11-22T16:38:39.275Z,96966.10
2022-11-22T16:41:41.136Z,96974.59
2022-11-22T16:44:42.763Z,96976.85
2022-11-22T16:47:44.766Z,96977.16
2022-11-22T16:51:12.495Z,96973.58
2022-11-22T16:54:16.448Z,96979.27
2022-11-22T16:57:18.363Z,96976.63
2022-11-22T17:00:20.177Z,96981.38
2022-11-22T17:03:29.072Z,96980.05
2022-11-22T17:06:31.610Z,96981.69
2022-11-22T17:09:33.935Z,96984.19
2022-11-22T17:12:35.845Z,96985.25
2022-11-22T17:15:39.302Z,96987.42
2022-11-22T17:18:40.947Z,96991.16
2022-11-22T17:21:43.533Z,96995.91
2022-11-22T17:24:45.154Z,96998.87
2022-11-22T17:27:50.298Z,97000.99
2022-11-22T17:31:00.771Z,96999.21
2022-11-22T17:34:02.838Z,97001.08
2022-11-22T17:37:10.248Z,97002.63
2022-11-22T17:40:12.854Z,97003.48
2022-11-22T17:43:14.453Z,97003.88
2022-11-22T17:46:16.464Z,97003.50
2022-11-22T17:49:18.036Z,97006.45
2022-11-22T17:52:19.638Z,97011.20
2022-11-22T17:55:21.183Z,97012.21
2022-11-22T17:58:22.728Z,97010.42
2022-11-22T18:01:24.623Z,97013.07
2022-11-22T18:04:26.393Z,97015.48
2022-11-22T18:07:28.922Z,97018.60
2022-11-22T18:10:38.179Z,97018.44
2022-11-22T18:13:40.334Z,97020.55
2022-11-22T18:16:59.674Z,97021.86
2022-11-22T18:20:01.723Z,97018.36
2022-11-22T18:23:03.348Z,97020.85
2022-11-22T18:26:31.866Z,97022.17
2022-11-22T18:29:45.092Z,97026.23
2022-11-22T18:32:46.910Z,97023.73
2022-11-22T18:36:01.064Z,97026.62
2022-11-22T18:39:03.173Z,97023.81
2022-11-22T18:42:07.950Z,97019.77
2022-11-22T18:45:13.944Z,97014.46
2022-11-22T18:48:21.831Z,97005.12
2022-11-22T18:51:29.568Z,97004.89
2022-11-22T18:54:31.630Z,97009.25
2022-11-22T18:57:34.022Z,97004.65
2022-11-22T19:00:35.739Z,97011.05
2022-11-22T19:03:37.827Z,97009.18
2022-11-22T19:06:40.228Z,97009.33
2022-11-22T19:09:42.204Z,97011.44
2022-11-22T19:12:43.829Z,97012.52
2022-11-22T19:15:46.081Z,97011.52
2022-11-22T19:18:47.868Z,97011.13
2022-11-22T19:21:49.465Z,97010.42
2022-11-22T19:24:51.411Z,97010.97
2022-11-22T19:27:53.218Z,97011.36
2022-11-22T19:31:09.733Z,97017.75
2022-11-22T19:34:12.190Z,97014.55
2022-11-22T19:37:13.815Z,97016.18
2022-11-22T19:40:15.412Z,97020.55
2022-11-22T19:43:20.325Z,97025.37
2022-11-22T19:46:22.731Z,97030.67
2022-11-22T19:49:24.824Z,97029.65
2022-11-22T19:52:26.359Z,97032.61
2022-11-22T19:55:28.664Z,97036.51
2022-11-22T19:58:31.048Z,97043.05
2022-11-22T20:01:33.789Z,97037.21
2022-11-22T20:04:35.459Z,97042.58
2022-11-22T20:07:37.135Z,97044.97
2022-11-22T20:10:39.383Z,97056.64
2022-11-22T20:13:42.683Z,97057.81
2022-11-22T20:16:44.388Z,97058.73
2022-11-22T20:19:45.977Z,97067.48
2022-11-22T20:22:47.535Z,97062.40
2022-11-22T20:25:49.107Z,97065.83
2022-11-22T20:28:55.080Z,97063.80
2022-11-22T20:31:58.356Z,97065.27
2022-11-22T20:34:59.937Z,97069.41
2022-11-22T20:38:01.494Z,97069.48
2022-11-22T20:41:06.975Z,97069.48
2022-11-22T20:44:13.140Z,97071.59
2022-11-22T20:47:14.673Z,97069.09
2022-11-22T20:50:16.716Z,97070.80
2022-11-22T20:53:18.356Z,97075.93
2022-11-22T20:56:20.308Z,97077.02
2022-11-22T20:59:21.969Z,97075.61
2022-11-22T21:02:23.690Z,97079.65
2022-11-22T21:05:25.377Z,97078.80
2022-11-22T21:08:27.109Z,97077.38
2022-11-22T21:11:30.276Z,97078.05
2022-11-22T21:14:31.982Z,97083.04
2022-11-22T21:17:46.073Z,97084.42
2022-11-22T21:21:21.826Z,97082.29
2022-11-22T21:24:23.363Z,97079.56
2022-11-22T21:27:24.965Z,97078.54
2022-11-22T21:30:26.604Z,97077.77
2022-11-22T21:33:33.223Z,97078.29
2022-11-22T21:36:34.852Z,97076.10
2022-11-22T21:39:36.730Z,97080.60
2022-11-22T21:42:40.011Z,97080.04
2022-11-22T21:45:41.703Z,97087.97
2022-11-22T21:48:43.320Z,97087.27
2022-11-22T21:51:45.247Z,97089.27
2022-11-22T21:54:46.930Z,97088.11
2022-11-22T21:57:48.639Z,97083.98
2022-11-22T22:00:52.845Z,97083.83
2022-11-22T22:03:54.753Z,97087.09
2022-11-22T22:06:56.349Z,97086.69
2022-11-22T22:09:57.916Z,97083.81
2022-11-22T22:12:59.539Z,97086.45
2022-11-22T22:16:05.816Z,97083.50
2022-11-22T22:19:09.591Z,97080.21
2022-11-22T22:22:11.284Z,97084.39
2022-11-22T22:25:12.846Z,97091.30
2022-11-22T22:28:14.351Z,97090.49
2022-11-22T22:31:21.951Z,97090.73
2022-11-22T22:34:24.013Z,97096.86
2022-11-22T22:37:25.548Z,97096.69
2022-11-22T22:40:27.176Z,97099.58
2022-11-22T22:43:34.960Z,97101.36
2022-11-22T22:46:36.679Z,97097.48
2022-11-22T22:49:38.319Z,97094.52
2022-11-22T22:52:39.880Z,97095.38
2022-11-22T22:55:41.456Z,97094.52
2022-11-22T22:58:43.730Z,97096.38
2022-11-22T23:01:45.221Z,97096.75
2022-11-22T23:04:46.764Z,97098.73
2022-11-22T23:07:48.449Z,97101.53
2022-11-22T23:10:50.056Z,97107.98
2022-11-22T23:13:51.730Z,97099.73
2022-11-22T23:16:57.659Z,97102.13
2022-11-22T23:19:59.863Z,97104.50
2022-11-22T23:23:01.445Z,97101.99
2022-11-22T23:26:05.707Z,97097.98
2022-11-22T23:29:07.476Z,97096.64
2022-11-22T23:32:09.051Z,97099.33
2022-11-22T23:35:10.616Z,97103.58
2022-11-22T23:38:12.231Z,97098.67
2022-11-22T23:41:16.377Z,97100.14
2022-11-22T23:44:17.941Z,97095.75
2022-11-22T23:47:19.447Z,97092.48
2022-11-22T23:50:21.074Z,97089.37
2022-11-22T23:53:23.267Z,97087.67
2022-11-22T23:56:26.057Z,97086.89
2022-11-22T23:59:27.622Z,97082.84
